sensor_id;sensor_type;location;lat;lon;timestamp;P1;durP1;ratioP1;P2;durP2;ratioP2
51200;SDS011;55101;52.138;5.216;2022-07-10T00:00:39;6.3;;;2.21;;
51200;SDS011;55101;52.138;5.216;2022-07-10T00:02:26;4.91;;;3.5;;
51200;SDS011;55101;52.138;5.216;2022-07-10T00:04:12;5.5;;;4.41;;
51200;SDS011;55101;52.138;5.216;2022-07-10T00:07:47;4.2;;;3.8;;
51200;SDS011;55101;52.138;5.216;2022-07-10T00:09:34;5.7;;;4.61;;
51200;SDS011;55101;52.138;5.216;2022-07-10T00:11:21;5.3;;;4.8;;
51200;SDS011;55101;52.138;5.216;2022-07-10T00:13:08;6.6;;;4.2;;
51200;SDS011;55101;52.138;5.216;2022-07-10T00:14:55;6.6;;;4.2;;
51200;SDS011;55101;52.138;5.216;2022-07-10T00:16:42;3.3;;;2.4;;
51200;SDS011;55101;52.138;5.216;2022-07-10T00:20:16;5.3;;;3.5;;
51200;SDS011;55101;52.138;5.216;2022-07-10T00:22:03;3.5;;;2.9;;
51200;SDS011;55101;52.138;5.216;2022-07-10T00:23:50;5.6;;;2.31;;
51200;SDS011;55101;52.138;5.216;2022-07-10T00:25:37;4.5;;;2.0;;
51200;SDS011;55101;52.138;5.216;2022-07-10T00:27:24;7.3;;;2.0;;
51200;SDS011;55101;52.138;5.216;2022-07-10T00:29:11;4.8;;;1.9;;
51200;SDS011;55101;52.138;5.216;2022-07-10T00:32:45;5.3;;;1.8;;
51200;SDS011;55101;52.138;5.216;2022-07-10T00:34:33;4.91;;;1.9;;
51200;SDS011;55101;52.138;5.216;2022-07-10T00:36:19;6.4;;;1.9;;
51200;SDS011;55101;52.138;5.216;2022-07-10T00:38:06;6.8;;;2.6;;
51200;SDS011;55101;52.138;5.216;2022-07-10T00:39:54;5.11;;;2.1;;
51200;SDS011;55101;52.138;5.216;2022-07-10T00:41:40;4.7;;;1.6;;
51200;SDS011;55101;52.138;5.216;2022-07-10T00:45:14;4.41;;;1.2;;
51200;SDS011;55101;52.138;5.216;2022-07-10T00:47:01;4.91;;;1.7;;
51200;SDS011;55101;52.138;5.216;2022-07-10T00:48:49;5.6;;;1.6;;
51200;SDS011;55101;52.138;5.216;2022-07-10T00:50:36;6.4;;;1.5;;
51200;SDS011;55101;52.138;5.216;2022-07-10T00:52:24;4.8;;;1.5;;
51200;SDS011;55101;52.138;5.216;2022-07-10T00:54:11;5.4;;;1.7;;
51200;SDS011;55101;52.138;5.216;2022-07-10T00:57:45;2.9;;;1.2;;
51200;SDS011;55101;52.138;5.216;2022-07-10T00:59:33;5.2;;;2.0;;
51200;SDS011;55101;52.138;5.216;2022-07-10T01:01:22;3.1;;;1.5;;
51200;SDS011;55101;52.138;5.216;2022-07-10T01:03:10;4.61;;;1.3;;
51200;SDS011;55101;52.138;5.216;2022-07-10T01:04:56;5.9;;;1.4;;
51200;SDS011;55101;52.138;5.216;2022-07-10T01:06:44;6.1;;;1.6;;
51200;SDS011;55101;52.138;5.216;2022-07-10T01:10:19;6.3;;;1.8;;
51200;SDS011;55101;52.138;5.216;2022-07-10T01:12:06;4.2;;;1.6;;
51200;SDS011;55101;52.138;5.216;2022-07-10T01:13:56;4.7;;;1.5;;
51200;SDS011;55101;52.138;5.216;2022-07-10T01:15:43;4.41;;;1.8;;
51200;SDS011;55101;52.138;5.216;2022-07-10T01:17:31;6.4;;;1.4;;
51200;SDS011;55101;52.138;5.216;2022-07-10T01:19:19;3.9;;;1.4;;
51200;SDS011;55101;52.138;5.216;2022-07-10T01:23:09;2.1;;;1.4;;
51200;SDS011;55101;52.138;5.216;2022-07-10T01:24:56;3.8;;;1.5;;
51200;SDS011;55101;52.138;5.216;2022-07-10T01:26:44;5.4;;;1.8;;
51200;SDS011;55101;52.138;5.216;2022-07-10T01:28:31;4.91;;;1.8;;
51200;SDS011;55101;52.138;5.216;2022-07-10T01:30:21;3.8;;;1.7;;
51200;SDS011;55101;52.138;5.216;2022-07-10T01:32:07;6.4;;;1.8;;
51200;SDS011;55101;52.138;5.216;2022-07-10T01:33:54;4.5;;;1.5;;
51200;SDS011;55101;52.138;5.216;2022-07-10T01:37:29;3.5;;;1.4;;
51200;SDS011;55101;52.138;5.216;2022-07-10T01:39:16;6.0;;;1.9;;
51200;SDS011;55101;52.138;5.216;2022-07-10T01:41:02;4.3;;;1.4;;
51200;SDS011;55101;52.138;5.216;2022-07-10T01:42:49;4.5;;;1.9;;
51200;SDS011;55101;52.138;5.216;2022-07-10T01:44:36;5.11;;;1.7;;
51200;SDS011;55101;52.138;5.216;2022-07-10T01:48:11;3.9;;;2.0;;
51200;SDS011;55101;52.138;5.216;2022-07-10T01:49:58;3.9;;;2.0;;
51200;SDS011;55101;52.138;5.216;2022-07-10T01:51:45;3.3;;;1.5;;
51200;SDS011;55101;52.138;5.216;2022-07-10T01:53:32;4.3;;;1.4;;
51200;SDS011;55101;52.138;5.216;2022-07-10T01:55:20;7.5;;;2.0;;
51200;SDS011;55101;52.138;5.216;2022-07-10T01:57:08;7.0;;;1.7;;
51200;SDS011;55101;52.138;5.216;2022-07-10T02:00:42;4.5;;;1.8;;
51200;SDS011;55101;52.138;5.216;2022-07-10T02:02:29;5.11;;;1.8;;
51200;SDS011;55101;52.138;5.216;2022-07-10T02:04:48;6.5;;;1.9;;
51200;SDS011;55101;52.138;5.216;2022-07-10T02:06:35;5.11;;;1.5;;
51200;SDS011;55101;52.138;5.216;2022-07-10T02:08:22;4.2;;;1.8;;
51200;SDS011;55101;52.138;5.216;2022-07-10T02:10:09;5.6;;;1.8;;
51200;SDS011;55101;52.138;5.216;2022-07-10T02:11:56;3.7;;;1.5;;
51200;SDS011;55101;52.138;5.216;2022-07-10T02:13:43;4.61;;;1.3;;
51200;SDS011;55101;52.138;5.216;2022-07-10T02:17:17;6.0;;;1.8;;
51200;SDS011;55101;52.138;5.216;2022-07-10T02:19:04;4.91;;;1.7;;
51200;SDS011;55101;52.138;5.216;2022-07-10T02:20:50;5.2;;;2.31;;
51200;SDS011;55101;52.138;5.216;2022-07-10T02:22:37;3.3;;;1.7;;
51200;SDS011;55101;52.138;5.216;2022-07-10T02:24:25;3.3;;;1.7;;
51200;SDS011;55101;52.138;5.216;2022-07-10T02:26:11;3.8;;;2.0;;
51200;SDS011;55101;52.138;5.216;2022-07-10T02:29:46;6.2;;;1.8;;
51200;SDS011;55101;52.138;5.216;2022-07-10T02:31:34;3.3;;;1.3;;
51200;SDS011;55101;52.138;5.216;2022-07-10T02:33:21;5.8;;;1.6;;
51200;SDS011;55101;52.138;5.216;2022-07-10T02:35:08;3.7;;;1.7;;
51200;SDS011;55101;52.138;5.216;2022-07-10T02:36:55;2.4;;;1.4;;
51200;SDS011;55101;52.138;5.216;2022-07-10T02:40:30;4.7;;;1.5;;
51200;SDS011;55101;52.138;5.216;2022-07-10T02:42:17;4.1;;;1.9;;
51200;SDS011;55101;52.138;5.216;2022-07-10T02:44:04;3.9;;;1.4;;
51200;SDS011;55101;52.138;5.216;2022-07-10T02:45:51;5.0;;;1.8;;
51200;SDS011;55101;52.138;5.216;2022-07-10T02:47:38;5.4;;;1.7;;
51200;SDS011;55101;52.138;5.216;2022-07-10T02:49:25;4.8;;;1.7;;
51200;SDS011;55101;52.138;5.216;2022-07-10T02:53:00;7.8;;;2.1;;
51200;SDS011;55101;52.138;5.216;2022-07-10T02:54:47;4.41;;;1.11;;
51200;SDS011;55101;52.138;5.216;2022-07-10T02:56:36;5.4;;;1.6;;
51200;SDS011;55101;52.138;5.216;2022-07-10T02:58:22;8.1;;;1.7;;
51200;SDS011;55101;52.138;5.216;2022-07-10T03:00:09;3.3;;;1.6;;
51200;SDS011;55101;52.138;5.216;2022-07-10T03:01:57;5.3;;;1.8;;
51200;SDS011;55101;52.138;5.216;2022-07-10T03:05:30;5.2;;;1.7;;
51200;SDS011;55101;52.138;5.216;2022-07-10T03:07:16;4.5;;;2.0;;
51200;SDS011;55101;52.138;5.216;2022-07-10T03:09:03;4.5;;;2.0;;
51200;SDS011;55101;52.138;5.216;2022-07-10T03:10:50;4.3;;;1.8;;
51200;SDS011;55101;52.138;5.216;2022-07-10T03:12:38;4.2;;;1.6;;
51200;SDS011;55101;52.138;5.216;2022-07-10T03:14:26;3.7;;;1.9;;
51200;SDS011;55101;52.138;5.216;2022-07-10T03:18:00;3.5;;;1.7;;
51200;SDS011;55101;52.138;5.216;2022-07-10T03:19:47;3.3;;;1.7;;
51200;SDS011;55101;52.138;5.216;2022-07-10T03:21:34;4.91;;;1.6;;
51200;SDS011;55101;52.138;5.216;2022-07-10T03:23:21;4.0;;;1.5;;
51200;SDS011;55101;52.138;5.216;2022-07-10T03:25:09;3.4;;;1.7;;
51200;SDS011;55101;52.138;5.216;2022-07-10T03:26:55;6.7;;;1.8;;
51200;SDS011;55101;52.138;5.216;2022-07-10T03:30:30;6.7;;;1.8;;
51200;SDS011;55101;52.138;5.216;2022-07-10T03:32:17;5.3;;;2.21;;
51200;SDS011;55101;52.138;5.216;2022-07-10T03:34:04;4.91;;;2.0;;
51200;SDS011;55101;52.138;5.216;2022-07-10T03:35:51;6.6;;;2.1;;
51200;SDS011;55101;52.138;5.216;2022-07-10T03:37:38;6.6;;;2.31;;
51200;SDS011;55101;52.138;5.216;2022-07-10T03:39:25;5.7;;;1.6;;
51200;SDS011;55101;52.138;5.216;2022-07-10T03:43:00;5.3;;;2.1;;
51200;SDS011;55101;52.138;5.216;2022-07-10T03:44:47;2.8;;;1.5;;
51200;SDS011;55101;52.138;5.216;2022-07-10T03:46:34;3.8;;;1.9;;
51200;SDS011;55101;52.138;5.216;2022-07-10T03:48:21;4.2;;;2.31;;
51200;SDS011;55101;52.138;5.216;2022-07-10T03:50:08;5.7;;;2.31;;
51200;SDS011;55101;52.138;5.216;2022-07-10T03:53:45;3.0;;;2.1;;
51200;SDS011;55101;52.138;5.216;2022-07-10T03:55:32;4.0;;;1.6;;
51200;SDS011;55101;52.138;5.216;2022-07-10T03:58:23;4.61;;;1.5;;
51200;SDS011;55101;52.138;5.216;2022-07-10T04:00:11;5.0;;;2.21;;
51200;SDS011;55101;52.138;5.216;2022-07-10T04:01:59;4.41;;;1.9;;
51200;SDS011;55101;52.138;5.216;2022-07-10T04:03:45;4.7;;;1.7;;
51200;SDS011;55101;52.138;5.216;2022-07-10T04:05:32;5.8;;;2.1;;
51200;SDS011;55101;52.138;5.216;2022-07-10T04:07:20;4.3;;;2.7;;
51200;SDS011;55101;52.138;5.216;2022-07-10T04:09:08;3.1;;;1.9;;
51200;SDS011;55101;52.138;5.216;2022-07-10T04:10:55;5.5;;;2.31;;
51200;SDS011;55101;52.138;5.216;2022-07-10T04:14:28;4.2;;;1.9;;
51200;SDS011;55101;52.138;5.216;2022-07-10T04:16:14;5.3;;;2.9;;
51200;SDS011;55101;52.138;5.216;2022-07-10T04:18:00;6.2;;;2.0;;
51200;SDS011;55101;52.138;5.216;2022-07-10T04:19:48;3.1;;;1.7;;
51200;SDS011;55101;52.138;5.216;2022-07-10T04:21:35;5.3;;;1.6;;
51200;SDS011;55101;52.138;5.216;2022-07-10T04:23:24;5.3;;;2.0;;
51200;SDS011;55101;52.138;5.216;2022-07-10T04:26:58;5.2;;;2.5;;
51200;SDS011;55101;52.138;5.216;2022-07-10T04:28:45;4.91;;;2.1;;
51200;SDS011;55101;52.138;5.216;2022-07-10T04:30:31;4.7;;;2.0;;
51200;SDS011;55101;52.138;5.216;2022-07-10T04:32:19;4.2;;;1.9;;
51200;SDS011;55101;52.138;5.216;2022-07-10T04:34:06;4.2;;;2.1;;
51200;SDS011;55101;52.138;5.216;2022-07-10T04:37:40;4.0;;;1.7;;
51200;SDS011;55101;52.138;5.216;2022-07-10T04:39:27;3.1;;;1.6;;
51200;SDS011;55101;52.138;5.216;2022-07-10T04:41:15;5.5;;;2.0;;
51200;SDS011;55101;52.138;5.216;2022-07-10T04:43:01;5.2;;;3.1;;
51200;SDS011;55101;52.138;5.216;2022-07-10T04:44:48;5.0;;;2.21;;
51200;SDS011;55101;52.138;5.216;2022-07-10T04:46:36;3.3;;;1.6;;
51200;SDS011;55101;52.138;5.216;2022-07-10T04:50:10;4.3;;;3.9;;
51200;SDS011;55101;52.138;5.216;2022-07-10T04:51:57;7.2;;;3.1;;
51200;SDS011;55101;52.138;5.216;2022-07-10T04:53:44;4.7;;;2.21;;
51200;SDS011;55101;52.138;5.216;2022-07-10T04:55:32;6.8;;;2.4;;
51200;SDS011;55101;52.138;5.216;2022-07-10T04:57:18;3.0;;;1.8;;
51200;SDS011;55101;52.138;5.216;2022-07-10T04:59:06;3.5;;;2.0;;
51200;SDS011;55101;52.138;5.216;2022-07-10T05:02:40;6.6;;;3.0;;
51200;SDS011;55101;52.138;5.216;2022-07-10T05:04:27;6.3;;;4.5;;
51200;SDS011;55101;52.138;5.216;2022-07-10T05:06:14;2.7;;;2.0;;
51200;SDS011;55101;52.138;5.216;2022-07-10T05:08:01;6.5;;;3.4;;
51200;SDS011;55101;52.138;5.216;2022-07-10T05:09:48;7.3;;;4.91;;
51200;SDS011;55101;52.138;5.216;2022-07-10T05:11:35;7.7;;;4.2;;
51200;SDS011;55101;52.138;5.216;2022-07-10T05:15:09;6.3;;;3.6;;
51200;SDS011;55101;52.138;5.216;2022-07-10T05:16:56;6.0;;;3.7;;
51200;SDS011;55101;52.138;5.216;2022-07-10T05:18:43;4.41;;;4.0;;
51200;SDS011;55101;52.138;5.216;2022-07-10T05:20:30;6.3;;;4.3;;
51200;SDS011;55101;52.138;5.216;2022-07-10T05:22:17;4.41;;;4.0;;
51200;SDS011;55101;52.138;5.216;2022-07-10T05:24:05;11.4;;;10.6;;
51200;SDS011;55101;52.138;5.216;2022-07-10T05:27:39;5.7;;;4.91;;
51200;SDS011;55101;52.138;5.216;2022-07-10T05:29:26;6.3;;;3.3;;
51200;SDS011;55101;52.138;5.216;2022-07-10T05:31:13;5.5;;;3.5;;
51200;SDS011;55101;52.138;5.216;2022-07-10T05:33:00;4.61;;;3.7;;
51200;SDS011;55101;52.138;5.216;2022-07-10T05:34:47;6.1;;;4.1;;
51200;SDS011;55101;52.138;5.216;2022-07-10T05:36:35;7.8;;;4.5;;
51200;SDS011;55101;52.138;5.216;2022-07-10T05:40:08;5.4;;;3.7;;
51200;SDS011;55101;52.138;5.216;2022-07-10T05:41:57;6.7;;;4.8;;
51200;SDS011;55101;52.138;5.216;2022-07-10T05:43:44;7.7;;;7.1;;
51200;SDS011;55101;52.138;5.216;2022-07-10T05:45:31;8.6;;;5.6;;
51200;SDS011;55101;52.138;5.216;2022-07-10T05:47:18;7.6;;;4.3;;
51200;SDS011;55101;52.138;5.216;2022-07-10T05:50:53;5.6;;;2.4;;
51200;SDS011;55101;52.138;5.216;2022-07-10T05:52:40;6.8;;;4.0;;
51200;SDS011;55101;52.138;5.216;2022-07-10T05:54:27;6.6;;;3.9;;
51200;SDS011;55101;52.138;5.216;2022-07-10T05:56:14;7.7;;;6.2;;
51200;SDS011;55101;52.138;5.216;2022-07-10T05:58:01;7.4;;;4.3;;
51200;SDS011;55101;52.138;5.216;2022-07-10T05:59:49;6.6;;;4.41;;
51200;SDS011;55101;52.138;5.216;2022-07-10T06:03:24;7.3;;;6.6;;
51200;SDS011;55101;52.138;5.216;2022-07-10T06:05:11;3.7;;;3.4;;
51200;SDS011;55101;52.138;5.216;2022-07-10T06:07:02;8.5;;;4.1;;
51200;SDS011;55101;52.138;5.216;2022-07-10T06:08:49;4.3;;;2.9;;
51200;SDS011;55101;52.138;5.216;2022-07-10T06:10:36;8.4;;;7.6;;
51200;SDS011;55101;52.138;5.216;2022-07-10T06:12:23;5.3;;;4.8;;
51200;SDS011;55101;52.138;5.216;2022-07-10T06:15:57;10.9;;;10.21;;
51200;SDS011;55101;52.138;5.216;2022-07-10T06:17:44;8.0;;;4.41;;
51200;SDS011;55101;52.138;5.216;2022-07-10T06:19:31;9.6;;;7.5;;
51200;SDS011;55101;52.138;5.216;2022-07-10T06:21:21;5.8;;;4.41;;
51200;SDS011;55101;52.138;5.216;2022-07-10T06:23:08;9.81;;;6.4;;
51200;SDS011;55101;52.138;5.216;2022-07-10T06:24:55;7.3;;;5.7;;
51200;SDS011;55101;52.138;5.216;2022-07-10T06:28:30;7.1;;;6.5;;
51200;SDS011;55101;52.138;5.216;2022-07-10T06:30:20;6.4;;;4.8;;
51200;SDS011;55101;52.138;5.216;2022-07-10T06:32:07;10.8;;;9.71;;
51200;SDS011;55101;52.138;5.216;2022-07-10T06:33:54;6.4;;;5.8;;
51200;SDS011;55101;52.138;5.216;2022-07-10T06:35:41;6.0;;;5.5;;
51200;SDS011;55101;52.138;5.216;2022-07-10T06:37:30;5.5;;;4.8;;
51200;SDS011;55101;52.138;5.216;2022-07-10T06:41:05;11.2;;;6.4;;
51200;SDS011;55101;52.138;5.216;2022-07-10T06:42:52;8.6;;;5.0;;
51200;SDS011;55101;52.138;5.216;2022-07-10T06:44:39;8.0;;;7.2;;
51200;SDS011;55101;52.138;5.216;2022-07-10T06:46:28;8.9;;;5.2;;
51200;SDS011;55101;52.138;5.216;2022-07-10T06:48:15;9.9;;;9.21;;
51200;SDS011;55101;52.138;5.216;2022-07-10T06:50:02;12.4;;;8.81;;
51200;SDS011;55101;52.138;5.216;2022-07-10T06:53:38;4.5;;;4.1;;
51200;SDS011;55101;52.138;5.216;2022-07-10T06:55:25;8.5;;;7.7;;
51200;SDS011;55101;52.138;5.216;2022-07-10T06:57:13;7.9;;;6.4;;
51200;SDS011;55101;52.138;5.216;2022-07-10T06:59:01;11.5;;;8.2;;
51200;SDS011;55101;52.138;5.216;2022-07-10T07:00:49;9.31;;;8.71;;
51200;SDS011;55101;52.138;5.216;2022-07-10T07:02:35;22.6;;;21.1;;
51200;SDS011;55101;52.138;5.216;2022-07-10T07:06:10;16.7;;;15.5;;
51200;SDS011;55101;52.138;5.216;2022-07-10T07:07:57;8.0;;;7.4;;
51200;SDS011;55101;52.138;5.216;2022-07-10T07:09:45;8.2;;;7.6;;
51200;SDS011;55101;52.138;5.216;2022-07-10T07:11:36;11.0;;;10.21;;
51200;SDS011;55101;52.138;5.216;2022-07-10T07:13:23;17.0;;;16.11;;
51200;SDS011;55101;52.138;5.216;2022-07-10T07:15:10;11.8;;;10.8;;
51200;SDS011;55101;52.138;5.216;2022-07-10T07:18:49;13.4;;;12.5;;
51200;SDS011;55101;52.138;5.216;2022-07-10T07:23:43;12.3;;;11.2;;
51200;SDS011;55101;52.138;5.216;2022-07-10T07:25:30;14.8;;;13.8;;
51200;SDS011;55101;52.138;5.216;2022-07-10T07:29:04;10.9;;;10.21;;
51200;SDS011;55101;52.138;5.216;2022-07-10T07:30:51;18.41;;;17.11;;
51200;SDS011;55101;52.138;5.216;2022-07-10T07:32:38;21.8;;;20.7;;
51200;SDS011;55101;52.138;5.216;2022-07-10T07:34:26;11.7;;;10.8;;
51200;SDS011;55101;52.138;5.216;2022-07-10T07:36:12;14.0;;;12.9;;
51200;SDS011;55101;52.138;5.216;2022-07-10T07:38:00;11.1;;;10.4;;
51200;SDS011;55101;52.138;5.216;2022-07-10T07:41:35;21.1;;;20.11;;
51200;SDS011;55101;52.138;5.216;2022-07-10T07:43:22;26.2;;;24.8;;
51200;SDS011;55101;52.138;5.216;2022-07-10T07:45:10;14.7;;;13.9;;
51200;SDS011;55101;52.138;5.216;2022-07-10T07:46:57;15.3;;;14.3;;
51200;SDS011;55101;52.138;5.216;2022-07-10T07:48:44;14.5;;;13.6;;
51200;SDS011;55101;52.138;5.216;2022-07-10T07:50:32;9.0;;;8.31;;
51200;SDS011;55101;52.138;5.216;2022-07-10T07:54:09;18.5;;;17.5;;
51200;SDS011;55101;52.138;5.216;2022-07-10T07:55:57;21.6;;;20.3;;
51200;SDS011;55101;52.138;5.216;2022-07-10T07:57:44;12.8;;;12.0;;
51200;SDS011;55101;52.138;5.216;2022-07-10T07:59:33;22.8;;;21.5;;
51200;SDS011;55101;52.138;5.216;2022-07-10T08:01:21;15.5;;;14.7;;
51200;SDS011;55101;52.138;5.216;2022-07-10T08:03:08;13.3;;;12.6;;
51200;SDS011;55101;52.138;5.216;2022-07-10T08:06:42;16.11;;;15.2;;
51200;SDS011;55101;52.138;5.216;2022-07-10T08:08:28;25.3;;;24.0;;
51200;SDS011;55101;52.138;5.216;2022-07-10T08:10:16;24.0;;;22.6;;
51200;SDS011;55101;52.138;5.216;2022-07-10T08:12:06;17.11;;;15.9;;
51200;SDS011;55101;52.138;5.216;2022-07-10T08:13:54;25.8;;;24.3;;
51200;SDS011;55101;52.138;5.216;2022-07-10T08:15:41;16.9;;;15.8;;
51200;SDS011;55101;52.138;5.216;2022-07-10T08:19:14;20.3;;;19.3;;
51200;SDS011;55101;52.138;5.216;2022-07-10T08:21:02;15.0;;;14.3;;
51200;SDS011;55101;52.138;5.216;2022-07-10T08:22:49;28.4;;;26.8;;
51200;SDS011;55101;52.138;5.216;2022-07-10T08:24:36;21.2;;;19.91;;
51200;SDS011;55101;52.138;5.216;2022-07-10T08:26:23;13.4;;;12.7;;
51200;SDS011;55101;52.138;5.216;2022-07-10T08:28:11;13.9;;;13.0;;
51200;SDS011;55101;52.138;5.216;2022-07-10T08:31:45;18.5;;;17.3;;
51200;SDS011;55101;52.138;5.216;2022-07-10T08:33:33;19.41;;;18.5;;
51200;SDS011;55101;52.138;5.216;2022-07-10T08:35:20;17.91;;;16.9;;
51200;SDS011;55101;52.138;5.216;2022-07-10T08:37:07;18.61;;;17.7;;
51200;SDS011;55101;52.138;5.216;2022-07-10T08:38:54;18.3;;;17.2;;
51200;SDS011;55101;52.138;5.216;2022-07-10T08:40:41;16.5;;;15.6;;
51200;SDS011;55101;52.138;5.216;2022-07-10T08:44:19;23.5;;;22.2;;
51200;SDS011;55101;52.138;5.216;2022-07-10T08:46:06;19.91;;;18.91;;
51200;SDS011;55101;52.138;5.216;2022-07-10T08:47:53;26.9;;;25.5;;
51200;SDS011;55101;52.138;5.216;2022-07-10T08:49:45;17.5;;;16.5;;
51200;SDS011;55101;52.138;5.216;2022-07-10T08:51:35;18.8;;;17.91;;
51200;SDS011;55101;52.138;5.216;2022-07-10T08:53:28;23.3;;;22.2;;
51200;SDS011;55101;52.138;5.216;2022-07-10T08:57:05;23.7;;;22.2;;
51200;SDS011;55101;52.138;5.216;2022-07-10T08:58:52;30.4;;;28.9;;
51200;SDS011;55101;52.138;5.216;2022-07-10T09:00:40;20.6;;;19.5;;
51200;SDS011;55101;52.138;5.216;2022-07-10T09:02:27;16.8;;;15.8;;
51200;SDS011;55101;52.138;5.216;2022-07-10T09:04:16;30.0;;;28.3;;
51200;SDS011;55101;52.138;5.216;2022-07-10T09:06:04;24.1;;;22.8;;
51200;SDS011;55101;52.138;5.216;2022-07-10T09:09:56;22.3;;;21.2;;
51200;SDS011;55101;52.138;5.216;2022-07-10T09:11:44;19.8;;;18.8;;
51200;SDS011;55101;52.138;5.216;2022-07-10T09:13:31;25.1;;;23.8;;
51200;SDS011;55101;52.138;5.216;2022-07-10T09:15:35;27.1;;;25.7;;
51200;SDS011;55101;52.138;5.216;2022-07-10T09:17:22;21.0;;;19.91;;
51200;SDS011;55101;52.138;5.216;2022-07-10T09:19:17;23.0;;;21.7;;
51200;SDS011;55101;52.138;5.216;2022-07-10T09:21:06;25.7;;;24.5;;
51200;SDS011;55101;52.138;5.216;2022-07-10T09:22:58;26.1;;;24.6;;
51200;SDS011;55101;52.138;5.216;2022-07-10T09:24:54;18.0;;;17.0;;
51200;SDS011;55101;52.138;5.216;2022-07-10T09:28:28;22.2;;;21.2;;
51200;SDS011;55101;52.138;5.216;2022-07-10T09:30:17;19.8;;;18.8;;
51200;SDS011;55101;52.138;5.216;2022-07-10T09:32:18;20.5;;;19.5;;
51200;SDS011;55101;52.138;5.216;2022-07-10T09:34:04;24.5;;;23.4;;
51200;SDS011;55101;52.138;5.216;2022-07-10T09:36:08;23.7;;;22.5;;
51200;SDS011;55101;52.138;5.216;2022-07-10T09:37:57;31.7;;;30.0;;
51200;SDS011;55101;52.138;5.216;2022-07-10T09:39:51;25.0;;;23.8;;
51200;SDS011;55101;52.138;5.216;2022-07-10T09:41:42;21.4;;;20.41;;
51200;SDS011;55101;52.138;5.216;2022-07-10T09:43:32;21.4;;;20.41;;
51200;SDS011;55101;52.138;5.216;2022-07-10T09:47:21;23.4;;;22.2;;
51200;SDS011;55101;52.138;5.216;2022-07-10T09:49:08;24.1;;;22.9;;
51200;SDS011;55101;52.138;5.216;2022-07-10T09:50:56;23.6;;;22.5;;
51200;SDS011;55101;52.138;5.216;2022-07-10T09:52:44;22.4;;;21.3;;
51200;SDS011;55101;52.138;5.216;2022-07-10T09:54:32;23.4;;;22.3;;
51200;SDS011;55101;52.138;5.216;2022-07-10T09:56:21;23.9;;;22.9;;
51200;SDS011;55101;52.138;5.216;2022-07-10T09:58:10;21.9;;;20.8;;
51200;SDS011;55101;52.138;5.216;2022-07-10T10:01:46;22.5;;;21.3;;
51200;SDS011;55101;52.138;5.216;2022-07-10T10:03:35;20.6;;;19.5;;
51200;SDS011;55101;52.138;5.216;2022-07-10T10:05:26;19.2;;;18.11;;
51200;SDS011;55101;52.138;5.216;2022-07-10T10:07:21;18.7;;;17.61;;
51200;SDS011;55101;52.138;5.216;2022-07-10T10:09:12;23.7;;;22.6;;
51200;SDS011;55101;52.138;5.216;2022-07-10T10:13:00;20.9;;;19.91;;
51200;SDS011;55101;52.138;5.216;2022-07-10T10:14:51;19.0;;;18.0;;
51200;SDS011;55101;52.138;5.216;2022-07-10T10:18:29;22.6;;;21.4;;
51200;SDS011;55101;52.138;5.216;2022-07-10T10:20:49;23.2;;;22.1;;
51200;SDS011;55101;52.138;5.216;2022-07-10T10:22:38;22.4;;;21.1;;
51200;SDS011;55101;52.138;5.216;2022-07-10T10:24:27;20.0;;;19.11;;
51200;SDS011;55101;52.138;5.216;2022-07-10T10:26:18;23.6;;;22.5;;
51200;SDS011;55101;52.138;5.216;2022-07-10T10:28:08;18.7;;;17.7;;
51200;SDS011;55101;52.138;5.216;2022-07-10T10:29:57;22.3;;;21.2;;
51200;SDS011;55101;52.138;5.216;2022-07-10T10:31:45;20.2;;;19.3;;
51200;SDS011;55101;52.138;5.216;2022-07-10T10:35:43;22.0;;;21.0;;
51200;SDS011;55101;52.138;5.216;2022-07-10T10:37:34;21.6;;;20.5;;
51200;SDS011;55101;52.138;5.216;2022-07-10T10:39:22;21.8;;;20.8;;
51200;SDS011;55101;52.138;5.216;2022-07-10T10:41:24;21.1;;;20.2;;
51200;SDS011;55101;52.138;5.216;2022-07-10T10:43:17;20.41;;;19.41;;
51200;SDS011;55101;52.138;5.216;2022-07-10T10:45:25;22.9;;;21.7;;
51200;SDS011;55101;52.138;5.216;2022-07-10T10:47:18;22.9;;;21.7;;
51200;SDS011;55101;52.138;5.216;2022-07-10T10:49:06;21.9;;;20.9;;
51200;SDS011;55101;52.138;5.216;2022-07-10T10:50:56;28.5;;;27.1;;
51200;SDS011;55101;52.138;5.216;2022-07-10T10:52:49;24.1;;;22.9;;
51200;SDS011;55101;52.138;5.216;2022-07-10T10:55:03;20.7;;;19.7;;
51200;SDS011;55101;52.138;5.216;2022-07-10T10:57:35;17.61;;;16.8;;
51200;SDS011;55101;52.138;5.216;2022-07-10T10:59:43;17.3;;;16.3;;
51200;SDS011;55101;52.138;5.216;2022-07-10T11:01:32;19.8;;;18.8;;
51200;SDS011;55101;52.138;5.216;2022-07-10T11:03:21;19.91;;;18.8;;
51200;SDS011;55101;52.138;5.216;2022-07-10T11:05:42;14.8;;;14.1;;
51200;SDS011;55101;52.138;5.216;2022-07-10T11:08:02;16.9;;;16.11;;
51200;SDS011;55101;52.138;5.216;2022-07-10T11:09:50;18.11;;;17.3;;
51200;SDS011;55101;52.138;5.216;2022-07-10T11:12:13;21.6;;;20.7;;
51200;SDS011;55101;52.138;5.216;2022-07-10T11:14:00;15.8;;;15.1;;
51200;SDS011;55101;52.138;5.216;2022-07-10T11:15:52;14.8;;;14.2;;
51200;SDS011;55101;52.138;5.216;2022-07-10T11:17:39;19.2;;;18.2;;
51200;SDS011;55101;52.138;5.216;2022-07-10T11:21:19;27.1;;;25.8;;
51200;SDS011;55101;52.138;5.216;2022-07-10T11:23:26;17.5;;;16.7;;
51200;SDS011;55101;52.138;5.216;2022-07-10T11:25:41;15.9;;;15.2;;
51200;SDS011;55101;52.138;5.216;2022-07-10T11:27:39;20.7;;;19.61;;
51200;SDS011;55101;52.138;5.216;2022-07-10T11:29:55;19.7;;;18.7;;
51200;SDS011;55101;52.138;5.216;2022-07-10T11:31:51;19.8;;;18.7;;
51200;SDS011;55101;52.138;5.216;2022-07-10T11:33:39;20.0;;;19.0;;
51200;SDS011;55101;52.138;5.216;2022-07-10T11:35:28;20.7;;;19.61;;
51200;SDS011;55101;52.138;5.216;2022-07-10T11:37:16;20.0;;;19.11;;
51200;SDS011;55101;52.138;5.216;2022-07-10T11:39:05;18.0;;;17.2;;
51200;SDS011;55101;52.138;5.216;2022-07-10T11:40:53;18.3;;;17.5;;
51200;SDS011;55101;52.138;5.216;2022-07-10T11:44:41;21.1;;;20.11;;
51200;SDS011;55101;52.138;5.216;2022-07-10T11:46:29;17.0;;;16.0;;
51200;SDS011;55101;52.138;5.216;2022-07-10T11:48:18;20.2;;;19.3;;
51200;SDS011;55101;52.138;5.216;2022-07-10T11:50:06;17.3;;;16.4;;
51200;SDS011;55101;52.138;5.216;2022-07-10T11:52:00;16.2;;;15.3;;
51200;SDS011;55101;52.138;5.216;2022-07-10T11:53:52;13.6;;;12.9;;
51200;SDS011;55101;52.138;5.216;2022-07-10T11:55:42;12.0;;;11.2;;
51200;SDS011;55101;52.138;5.216;2022-07-10T11:57:37;15.0;;;14.1;;
51200;SDS011;55101;52.138;5.216;2022-07-10T11:59:24;16.2;;;15.3;;
51200;SDS011;55101;52.138;5.216;2022-07-10T12:03:15;13.7;;;13.0;;
51200;SDS011;55101;52.138;5.216;2022-07-10T12:05:06;12.8;;;12.2;;
51200;SDS011;55101;52.138;5.216;2022-07-10T12:06:54;12.5;;;12.0;;
51200;SDS011;55101;52.138;5.216;2022-07-10T12:08:42;12.8;;;12.2;;
51200;SDS011;55101;52.138;5.216;2022-07-10T12:10:32;10.1;;;9.6;;
51200;SDS011;55101;52.138;5.216;2022-07-10T12:12:22;12.8;;;12.1;;
51200;SDS011;55101;52.138;5.216;2022-07-10T12:14:09;14.1;;;13.3;;
51200;SDS011;55101;52.138;5.216;2022-07-10T12:17:49;13.9;;;13.3;;
51200;SDS011;55101;52.138;5.216;2022-07-10T12:19:37;13.0;;;12.4;;
51200;SDS011;55101;52.138;5.216;2022-07-10T12:21:25;13.3;;;12.6;;
51200;SDS011;55101;52.138;5.216;2022-07-10T12:23:12;10.3;;;9.71;;
51200;SDS011;55101;52.138;5.216;2022-07-10T12:25:06;15.5;;;14.7;;
51200;SDS011;55101;52.138;5.216;2022-07-10T12:26:55;14.2;;;13.5;;
51200;SDS011;55101;52.138;5.216;2022-07-10T12:28:50;12.5;;;12.0;;
51200;SDS011;55101;52.138;5.216;2022-07-10T12:32:28;15.5;;;14.7;;
51200;SDS011;55101;52.138;5.216;2022-07-10T12:34:16;12.1;;;11.6;;
51200;SDS011;55101;52.138;5.216;2022-07-10T12:36:03;12.1;;;11.6;;
51200;SDS011;55101;52.138;5.216;2022-07-10T12:37:52;12.6;;;12.1;;
51200;SDS011;55101;52.138;5.216;2022-07-10T12:39:45;13.4;;;12.8;;
51200;SDS011;55101;52.138;5.216;2022-07-10T12:41:35;11.6;;;11.1;;
51200;SDS011;55101;52.138;5.216;2022-07-10T12:43:45;10.9;;;10.3;;
51200;SDS011;55101;52.138;5.216;2022-07-10T12:45:32;13.6;;;12.9;;
51200;SDS011;55101;52.138;5.216;2022-07-10T12:49:08;16.4;;;15.6;;
51200;SDS011;55101;52.138;5.216;2022-07-10T12:50:55;11.3;;;10.7;;
51200;SDS011;55101;52.138;5.216;2022-07-10T12:52:42;17.3;;;16.5;;